首页
METAR-TAF:

METAR-TAF

机场 :

梅明根机场

梅明根, 德国

纬度: 47-59-33N, 经度: 10-14-37E, 海拔: 633米

当前天气观测

该预报发布于39分钟前的00:20 UTC
风速10节,风向西转西南
温度 2°C
湿度 93%
气压 1004 hPa
能见度10公里或以上

METAR: EDJA 180020Z AUTO 24010KT 9999 // BKN011/// OVC015/// 02/01 Q1004

时间: 01:59 (00:59 UTC)

预报

该预报发布于7小时和59分钟前的17:00 UTC
预报有效从17日的 18点(UTC)到 18日的 03点(UTC)
风速6节,风向西转西南
能見度: 6000
散云层高于300英尺
多云层高于600英尺
短暂存在
从 17日的 18点(UTC)到 17日的 22点(UTC)
散云层高于600英尺
成为
从 17日的 22点(UTC)到 17日的 24点(UTC)
散云层高于600英尺

TAF: EDJA 171700Z 1718/1803 25006KT 6000 SCT003 BKN006 TEMPO 1718/1722 SCT006 BECMG 1722/1724 SCT006

超过4000个机场的气象观测和天气预报(METAR&TAF报告)。

可查询的气象台以黄色和红色小点在地图上表示。

将鼠标移到小点上方,可查看气象台名称。

然后点击查看天气观测和预报。

如需切换地图:点击带黑十字的绿色按钮放大地图;点击带横线的绿色按钮缩小地图;或者点击绿色箭头查看邻近地区的地图。


METAR-TAF: